createdAt,value
2022-09-18T00:01:22.974Z,0.82
2022-09-18T00:03:49.899Z,0.80
2022-09-18T00:06:20.046Z,1.08
2022-09-18T00:08:49.722Z,1.10
2022-09-18T00:11:16.954Z,0.70
2022-09-18T00:13:44.146Z,1.10
2022-09-18T00:16:13.223Z,0.73
2022-09-18T00:18:41.048Z,0.93
2022-09-18T00:21:14.007Z,1.00
2022-09-18T00:23:41.007Z,0.88
2022-09-18T00:26:09.494Z,0.90
2022-09-18T00:28:36.731Z,0.90
2022-09-18T00:31:11.636Z,0.80
2022-09-18T00:33:40.141Z,1.20
2022-09-18T00:36:10.438Z,0.90
2022-09-18T00:38:37.304Z,1.23
2022-09-18T00:41:07.069Z,0.80
2022-09-18T00:43:35.257Z,1.15
2022-09-18T00:46:03.625Z,0.90
2022-09-18T00:48:48.455Z,0.90
2022-09-18T00:51:16.724Z,0.90
2022-09-18T00:54:01.165Z,1.00
2022-09-18T00:56:28.321Z,1.05
2022-09-18T00:58:55.640Z,1.20
2022-09-18T01:01:22.444Z,1.00
2022-09-18T01:03:49.305Z,1.20
2022-09-18T01:06:43.009Z,1.40
2022-09-18T01:09:28.228Z,1.15
2022-09-18T01:12:07.991Z,1.20
2022-09-18T01:14:50.158Z,1.20
2022-09-18T01:17:34.383Z,1.10
2022-09-18T01:20:18.941Z,1.38
2022-09-18T01:25:55.886Z,1.10
2022-09-18T01:28:29.138Z,1.13
2022-09-18T01:31:01.651Z,1.00
2022-09-18T01:33:40.212Z,1.30
2022-09-18T01:36:11.426Z,1.33
2022-09-18T01:39:02.623Z,1.10
2022-09-18T01:41:30.526Z,1.13
2022-09-18T01:44:03.752Z,1.00
2022-09-18T01:46:31.526Z,1.10
2022-09-18T01:49:04.551Z,1.13
2022-09-18T01:51:42.769Z,1.13
2022-09-18T01:54:15.692Z,1.10
2022-09-18T01:56:54.044Z,1.30
2022-09-18T01:59:27.881Z,1.08
2022-09-18T02:01:57.590Z,1.20
2022-09-18T02:04:30.746Z,1.25
2022-09-18T02:07:08.651Z,1.30
2022-09-18T02:09:35.730Z,1.20
2022-09-18T02:12:06.496Z,1.42
2022-09-18T02:14:38.559Z,1.38
2022-09-18T02:17:09.558Z,1.23
2022-09-18T02:19:47.469Z,1.10
2022-09-18T02:22:17.921Z,1.30
2022-09-18T02:24:48.439Z,1.20
2022-09-18T02:27:16.339Z,1.40
2022-09-18T02:29:45.265Z,1.30
2022-09-18T02:32:13.202Z,1.50
2022-09-18T02:34:40.028Z,1.35
2022-09-18T02:37:23.225Z,1.30
2022-09-18T02:40:10.293Z,1.30
2022-09-18T02:42:49.963Z,1.65
2022-09-18T02:45:50.556Z,1.30
2022-09-18T02:49:07.465Z,1.70
2022-09-18T02:52:03.418Z,1.60
2022-09-18T02:54:40.720Z,1.77
2022-09-18T02:57:15.360Z,1.50
2022-09-18T02:59:55.676Z,1.83
2022-09-18T03:02:23.041Z,1.40
2022-09-18T03:04:50.151Z,1.58
2022-09-18T03:07:17.443Z,1.70
2022-09-18T03:09:44.654Z,1.55
2022-09-18T03:12:12.423Z,1.75
2022-09-18T03:14:39.682Z,1.42
2022-09-18T03:17:06.442Z,1.55
2022-09-18T03:19:33.332Z,1.60
2022-09-18T03:22:00.114Z,1.60
2022-09-18T03:24:27.704Z,1.50
2022-09-18T03:26:54.431Z,1.60
2022-09-18T03:29:21.181Z,1.50
2022-09-18T03:31:47.969Z,1.80
2022-09-18T03:34:14.825Z,1.42
2022-09-18T03:36:41.511Z,1.65
2022-09-18T03:39:08.260Z,1.52
2022-09-18T03:41:35.198Z,1.70
2022-09-18T03:44:02.134Z,1.33
2022-09-18T03:46:28.878Z,1.30
2022-09-18T03:48:55.683Z,1.58
2022-09-18T03:51:22.691Z,1.25
2022-09-18T03:53:51.195Z,1.50
2022-09-18T03:56:18.500Z,1.75
2022-09-18T03:58:45.431Z,1.30
2022-09-18T04:01:13.773Z,1.33
2022-09-18T04:03:40.879Z,1.80
2022-09-18T04:06:07.895Z,1.63
2022-09-18T04:08:35.295Z,2.53
2022-09-18T04:11:04.559Z,1.30
2022-09-18T04:13:33.217Z,1.23
2022-09-18T04:16:00.073Z,1.40
2022-09-18T04:18:26.848Z,1.48
2022-09-18T04:20:53.578Z,1.60
2022-09-18T04:23:20.697Z,1.10
2022-09-18T04:25:47.976Z,1.48
2022-09-18T04:28:14.761Z,1.52
2022-09-18T04:30:41.491Z,1.30
2022-09-18T04:33:08.261Z,1.65
2022-09-18T04:35:35.300Z,1.50
2022-09-18T04:38:01.987Z,1.40
2022-09-18T04:40:28.796Z,1.52
2022-09-18T04:42:55.596Z,1.70
2022-09-18T04:45:22.436Z,2.58
2022-09-18T04:47:49.502Z,1.23
2022-09-18T04:50:16.446Z,1.40
2022-09-18T04:52:44.018Z,1.70
2022-09-18T04:55:11.160Z,1.40
2022-09-18T04:57:37.865Z,1.55
2022-09-18T05:00:06.523Z,1.40
2022-09-18T05:02:33.293Z,1.58
2022-09-18T05:05:00.000Z,1.50
2022-09-18T05:07:27.662Z,1.30
2022-09-18T05:09:54.434Z,1.60
2022-09-18T05:12:21.315Z,1.50
2022-09-18T05:14:48.061Z,1.35
2022-09-18T05:17:15.381Z,1.40
2022-09-18T05:19:42.145Z,1.70
2022-09-18T05:22:08.852Z,1.55
2022-09-18T05:24:35.558Z,1.42
2022-09-18T05:27:02.465Z,1.70
2022-09-18T05:29:29.267Z,1.55
2022-09-18T05:31:56.080Z,1.40
2022-09-18T05:34:22.878Z,1.65
2022-09-18T05:36:49.631Z,1.50
2022-09-18T05:39:17.733Z,1.52
2022-09-18T05:41:44.919Z,1.50
2022-09-18T05:44:11.644Z,2.92
2022-09-18T05:46:38.364Z,1.60
2022-09-18T05:49:06.742Z,1.42
2022-09-18T05:51:33.509Z,1.55
2022-09-18T05:54:00.327Z,1.70
2022-09-18T05:56:28.064Z,1.50
2022-09-18T05:58:54.896Z,1.50
2022-09-18T06:01:21.697Z,1.70
2022-09-18T06:03:51.876Z,1.58
2022-09-18T06:06:18.651Z,1.60
2022-09-18T06:08:45.380Z,1.60
2022-09-18T06:11:12.411Z,1.40
2022-09-18T06:13:39.489Z,1.45
2022-09-18T06:16:06.273Z,1.40
2022-09-18T06:18:33.120Z,1.40
2022-09-18T06:20:59.965Z,1.42
2022-09-18T06:23:28.616Z,1.52
2022-09-18T06:26:06.190Z,1.50
2022-09-18T06:28:34.262Z,1.40
2022-09-18T06:31:02.858Z,1.75
2022-09-18T06:33:29.884Z,1.77
2022-09-18T06:35:56.666Z,1.40
2022-09-18T06:38:23.494Z,1.40
2022-09-18T06:40:52.894Z,1.58
2022-09-18T06:43:19.921Z,1.35
2022-09-18T06:45:54.090Z,1.40
2022-09-18T06:51:05.875Z,1.10
2022-09-18T06:53:32.588Z,1.00
2022-09-18T06:56:00.119Z,0.93
2022-09-18T06:58:26.840Z,1.35
2022-09-18T07:00:53.920Z,1.10
2022-09-18T07:03:20.965Z,1.30
2022-09-18T07:05:47.942Z,0.95
2022-09-18T07:08:14.754Z,1.00
2022-09-18T07:10:41.634Z,1.10
2022-09-18T07:13:08.731Z,1.02
2022-09-18T07:15:35.831Z,1.23
2022-09-18T07:18:04.945Z,1.20
2022-09-18T07:20:31.661Z,1.00
2022-09-18T07:23:00.815Z,1.35
2022-09-18T07:25:29.398Z,1.10
2022-09-18T07:27:56.150Z,1.40
2022-09-18T07:30:22.934Z,1.15
2022-09-18T07:32:49.680Z,1.20
2022-09-18T07:35:16.492Z,1.23
2022-09-18T07:37:43.366Z,1.25
2022-09-18T07:40:12.567Z,1.23
2022-09-18T07:42:39.997Z,1.30
2022-09-18T07:45:07.342Z,1.13
2022-09-18T07:47:34.606Z,1.17
2022-09-18T07:50:01.540Z,1.00
2022-09-18T07:52:28.509Z,1.17
2022-09-18T07:54:55.446Z,1.10
2022-09-18T07:57:22.189Z,0.98
2022-09-18T07:59:48.928Z,1.08
2022-09-18T08:02:15.841Z,1.10
2022-09-18T08:04:42.916Z,1.05
2022-09-18T08:07:09.709Z,1.50
2022-09-18T08:09:36.430Z,0.95
2022-09-18T08:12:03.645Z,1.20
2022-09-18T08:14:30.510Z,1.00
2022-09-18T08:16:57.853Z,1.00
2022-09-18T08:19:24.950Z,1.00
2022-09-18T08:21:51.711Z,1.05
2022-09-18T08:24:18.486Z,0.98
2022-09-18T08:26:45.757Z,0.90
2022-09-18T08:29:18.995Z,1.00
2022-09-18T08:31:47.270Z,1.10
2022-09-18T08:34:14.171Z,1.10
2022-09-18T08:36:40.905Z,1.40
2022-09-18T08:39:07.740Z,1.17
2022-09-18T08:41:49.613Z,2.95
2022-09-18T08:44:24.386Z,1.23
2022-09-18T08:47:04.824Z,1.20
2022-09-18T08:49:51.680Z,1.45
2022-09-18T08:52:21.139Z,1.10
2022-09-18T08:54:57.939Z,1.10
2022-09-18T08:57:33.989Z,1.17
2022-09-18T09:00:10.244Z,1.10
2022-09-18T09:02:41.293Z,0.80
2022-09-18T09:05:12.796Z,1.20
2022-09-18T09:07:46.087Z,0.88
2022-09-18T09:10:35.090Z,1.10
2022-09-18T09:13:26.930Z,1.10
2022-09-18T09:16:12.586Z,1.00
2022-09-18T09:19:21.065Z,1.25
2022-09-18T09:22:00.107Z,0.80
2022-09-18T09:24:53.891Z,1.00
2022-09-18T09:27:26.775Z,1.10
2022-09-18T09:30:04.906Z,1.02
2022-09-18T09:32:39.366Z,0.90
2022-09-18T09:35:25.450Z,0.90
2022-09-18T09:37:53.279Z,0.82
2022-09-18T09:40:22.843Z,1.02
2022-09-18T09:43:19.460Z,0.90
2022-09-18T09:45:52.424Z,1.05
2022-09-18T09:48:29.058Z,0.95
2022-09-18T09:51:17.633Z,0.98
2022-09-18T09:53:44.933Z,0.85
2022-09-18T09:56:20.463Z,1.20
2022-09-18T09:58:56.418Z,1.00
2022-09-18T10:01:53.195Z,1.00
2022-09-18T10:04:50.191Z,1.00
2022-09-18T10:07:28.521Z,0.80
2022-09-18T10:10:18.036Z,0.80
2022-09-18T10:13:03.138Z,0.70
2022-09-18T10:15:47.861Z,1.00
2022-09-18T10:18:27.618Z,0.90
2022-09-18T10:20:57.572Z,1.02
2022-09-18T10:23:33.903Z,1.60
2022-09-18T10:26:01.729Z,1.38
2022-09-18T10:28:29.744Z,0.75
2022-09-18T10:31:03.973Z,0.80
2022-09-18T10:33:39.344Z,0.80
2022-09-18T10:36:17.241Z,0.63
2022-09-18T10:38:43.999Z,0.80
2022-09-18T10:41:24.862Z,1.00
2022-09-18T10:43:57.080Z,0.98
2022-09-18T10:46:26.726Z,1.42
2022-09-18T10:48:54.139Z,0.77
2022-09-18T10:51:25.681Z,0.88
2022-09-18T10:54:19.272Z,0.80
2022-09-18T10:56:46.091Z,0.73
2022-09-18T10:59:33.746Z,0.93
2022-09-18T11:02:03.744Z,1.30
2022-09-18T11:04:32.199Z,1.08
2022-09-18T11:07:02.727Z,1.10
2022-09-18T11:09:40.428Z,0.80
2022-09-18T11:12:20.387Z,0.95
2022-09-18T11:15:01.368Z,0.60
2022-09-18T11:17:34.375Z,0.93
2022-09-18T11:20:03.539Z,0.80
2022-09-18T11:22:41.719Z,0.70
2022-09-18T11:25:14.847Z,0.90
2022-09-18T11:28:06.573Z,0.85
2022-09-18T11:30:35.728Z,0.70
2022-09-18T11:33:35.990Z,0.90
2022-09-18T11:36:11.762Z,0.98
2022-09-18T11:38:41.479Z,0.60
2022-09-18T11:41:10.315Z,0.80
2022-09-18T11:43:39.994Z,1.00
2022-09-18T11:46:38.318Z,0.70
2022-09-18T11:49:14.664Z,0.70
2022-09-18T11:51:50.421Z,0.93
2022-09-18T11:54:46.888Z,1.42
2022-09-18T11:57:18.994Z,0.80
2022-09-18T12:00:17.067Z,1.60
2022-09-18T12:02:48.086Z,0.90
2022-09-18T12:05:39.813Z,0.80
2022-09-18T12:08:17.365Z,0.90
2022-09-18T12:11:03.289Z,0.80
2022-09-18T12:13:39.674Z,0.50
2022-09-18T12:16:16.413Z,0.70
2022-09-18T12:19:05.228Z,0.68
2022-09-18T12:21:47.699Z,0.73
2022-09-18T12:24:16.166Z,0.60
2022-09-18T12:26:59.463Z,0.80
2022-09-18T12:29:32.023Z,0.70
2022-09-18T12:32:13.806Z,1.83
2022-09-18T12:35:01.603Z,0.80
2022-09-18T12:38:32.968Z,0.60
2022-09-18T12:41:26.940Z,1.08
2022-09-18T12:44:12.618Z,0.70
2022-09-18T12:46:50.612Z,1.00
2022-09-18T12:49:36.069Z,0.77
2022-09-18T12:52:17.949Z,0.60
2022-09-18T12:55:07.266Z,0.60
2022-09-18T12:57:52.301Z,0.77
2022-09-18T13:00:19.344Z,1.50
2022-09-18T13:02:51.588Z,0.90
2022-09-18T13:05:29.886Z,0.80
2022-09-18T13:08:23.692Z,0.60
2022-09-18T13:10:59.796Z,0.80
2022-09-18T13:13:45.807Z,0.60
2022-09-18T13:16:25.556Z,0.70
2022-09-18T13:18:54.633Z,0.70
2022-09-18T13:21:29.576Z,0.80
2022-09-18T13:23:57.543Z,0.70
2022-09-18T13:26:27.393Z,0.85
2022-09-18T13:28:54.358Z,0.90
2022-09-18T13:31:24.330Z,0.70
2022-09-18T13:34:17.259Z,0.77
2022-09-18T13:36:46.674Z,0.80
2022-09-18T13:39:16.945Z,0.90
2022-09-18T13:41:50.078Z,0.90
2022-09-18T13:44:33.083Z,0.98
2022-09-18T13:47:14.314Z,0.70
2022-09-18T13:49:56.577Z,0.90
2022-09-18T13:52:35.682Z,0.90
2022-09-18T13:55:11.560Z,0.80
2022-09-18T13:57:38.738Z,0.90
2022-09-18T14:00:20.772Z,1.00
2022-09-18T14:02:49.334Z,0.95
2022-09-18T14:05:32.811Z,0.90
2022-09-18T14:08:04.250Z,0.85
2022-09-18T14:10:54.694Z,0.90
2022-09-18T14:13:47.643Z,1.20
2022-09-18T14:16:20.524Z,0.85
2022-09-18T14:18:47.527Z,1.10
2022-09-18T14:21:17.241Z,0.90
2022-09-18T14:23:46.738Z,0.90
2022-09-18T14:26:32.019Z,0.75
2022-09-18T14:29:11.020Z,0.60
2022-09-18T14:31:53.214Z,1.02
2022-09-18T14:34:39.543Z,1.00
2022-09-18T14:37:33.019Z,0.88
2022-09-18T14:40:00.666Z,1.00
2022-09-18T14:42:39.656Z,1.00
2022-09-18T14:45:08.902Z,0.90
2022-09-18T14:47:35.732Z,0.90
2022-09-18T14:50:04.429Z,1.50
2022-09-18T14:52:40.955Z,1.02
2022-09-18T14:55:17.304Z,1.00
2022-09-18T14:57:54.996Z,0.80
2022-09-18T15:00:27.934Z,0.80
2022-09-18T15:02:58.485Z,0.80
2022-09-18T15:05:27.557Z,0.80
2022-09-18T15:08:07.067Z,0.93
2022-09-18T15:10:38.471Z,0.70
2022-09-18T15:13:08.944Z,0.80
2022-09-18T15:15:40.145Z,0.90
2022-09-18T15:18:24.330Z,0.82
2022-09-18T15:23:25.204Z,0.93
2022-09-18T15:25:53.584Z,0.70
2022-09-18T15:28:21.460Z,0.90
2022-09-18T15:30:50.512Z,1.00
2022-09-18T15:33:19.762Z,0.90
2022-09-18T15:35:51.390Z,0.80
2022-09-18T15:38:22.685Z,0.90
2022-09-18T15:40:51.193Z,1.02
2022-09-18T15:43:40.971Z,0.90
2022-09-18T15:46:23.489Z,1.20
2022-09-18T15:48:51.985Z,0.98
2022-09-18T15:51:29.703Z,0.90
2022-09-18T15:54:10.449Z,1.10
2022-09-18T15:56:40.232Z,0.80
2022-09-18T15:59:17.533Z,1.00
2022-09-18T16:01:48.511Z,1.10
2022-09-18T16:04:22.642Z,0.70
2022-09-18T16:06:56.556Z,1.10
2022-09-18T16:12:27.528Z,1.40
2022-09-18T16:15:23.061Z,1.30
2022-09-18T16:17:55.621Z,1.00
2022-09-18T16:20:51.626Z,0.98
2022-09-18T16:23:27.145Z,0.90
2022-09-18T16:26:29.305Z,1.52
2022-09-18T16:28:57.383Z,1.40
2022-09-18T16:31:27.100Z,1.23
2022-09-18T16:34:01.284Z,1.30
2022-09-18T16:36:37.124Z,0.93
2022-09-18T16:39:24.202Z,1.30
2022-09-18T16:41:51.914Z,1.23
2022-09-18T16:44:19.416Z,1.17
2022-09-18T16:47:07.822Z,1.10
2022-09-18T16:49:37.500Z,1.00
2022-09-18T16:52:05.000Z,1.10
2022-09-18T16:54:32.033Z,1.30
2022-09-18T16:57:04.367Z,1.20
2022-09-18T16:59:32.921Z,1.30
2022-09-18T17:02:04.845Z,1.00
2022-09-18T17:04:33.212Z,0.80
2022-09-18T17:07:00.393Z,1.00
2022-09-18T17:09:27.305Z,1.13
2022-09-18T17:11:55.112Z,1.30
2022-09-18T17:14:22.900Z,1.17
2022-09-18T17:16:49.762Z,1.20
2022-09-18T17:19:16.646Z,1.20
2022-09-18T17:21:44.063Z,1.48
2022-09-18T17:24:11.226Z,1.40
2022-09-18T17:26:39.540Z,2.58
2022-09-18T17:29:07.099Z,1.85
2022-09-18T17:31:33.948Z,1.70
2022-09-18T17:34:01.082Z,2.63
2022-09-18T17:36:28.074Z,2.45
2022-09-18T17:38:54.820Z,2.17
2022-09-18T17:41:21.735Z,2.15
2022-09-18T17:43:53.611Z,2.28
2022-09-18T17:46:21.114Z,2.60
2022-09-18T17:48:48.034Z,2.42
2022-09-18T17:51:18.537Z,1.95
2022-09-18T17:53:48.053Z,1.70
2022-09-18T17:56:17.841Z,2.00
2022-09-18T17:58:45.826Z,1.95
2022-09-18T18:01:14.932Z,2.28
2022-09-18T18:03:41.699Z,2.42
2022-09-18T18:06:10.959Z,1.92
2022-09-18T18:08:38.383Z,1.80
2022-09-18T18:11:09.099Z,2.05
2022-09-18T18:13:37.292Z,1.70
2022-09-18T18:16:09.720Z,8.73
2022-09-18T18:18:37.971Z,5.55
2022-09-18T18:21:05.909Z,2.83
2022-09-18T18:23:33.304Z,1.80
2022-09-18T18:26:05.249Z,2.00
2022-09-18T18:28:33.492Z,2.00
2022-09-18T18:31:05.470Z,2.83
2022-09-18T18:33:36.447Z,2.50
2022-09-18T18:36:21.732Z,2.05
2022-09-18T18:38:50.952Z,2.30
2022-09-18T18:41:19.894Z,2.60
2022-09-18T18:43:53.134Z,2.92
2022-09-18T18:46:19.927Z,2.40
2022-09-18T18:48:46.937Z,2.50
2022-09-18T18:51:15.969Z,2.75
2022-09-18T18:53:43.913Z,2.83
2022-09-18T18:56:15.231Z,2.67
2022-09-18T18:58:44.009Z,2.70
2022-09-18T19:01:16.185Z,1.80
2022-09-18T19:03:51.558Z,1.30
2022-09-18T19:06:19.322Z,1.33
2022-09-18T19:08:47.189Z,1.10
2022-09-18T19:11:16.089Z,1.15
2022-09-18T19:13:45.625Z,1.10
2022-09-18T19:16:12.872Z,1.77
2022-09-18T19:18:40.286Z,1.23
2022-09-18T19:21:07.738Z,1.40
2022-09-18T19:23:35.562Z,1.35
2022-09-18T19:26:02.833Z,1.30
2022-09-18T19:28:30.858Z,1.40
2022-09-18T19:31:04.672Z,1.48
2022-09-18T19:33:33.101Z,1.10
2022-09-18T19:36:08.051Z,1.30
2022-09-18T19:38:37.025Z,1.58
2022-09-18T19:41:16.471Z,1.17
2022-09-18T19:43:43.318Z,1.30
2022-09-18T19:46:17.115Z,1.00
2022-09-18T19:48:44.970Z,1.20
2022-09-18T19:51:11.700Z,1.17
2022-09-18T19:53:38.446Z,1.48
2022-09-18T19:56:27.566Z,1.13
2022-09-18T19:58:54.638Z,1.13
2022-09-18T20:01:21.355Z,1.05
2022-09-18T20:03:52.309Z,1.05
2022-09-18T20:06:19.845Z,0.85
2022-09-18T20:08:46.657Z,0.95
2022-09-18T20:11:13.371Z,1.00
2022-09-18T20:13:40.092Z,1.13
2022-09-18T20:16:09.411Z,1.02
2022-09-18T20:18:36.745Z,1.00
2022-09-18T20:21:08.817Z,1.20
2022-09-18T20:23:36.223Z,0.90
2022-09-18T20:26:08.125Z,1.08
2022-09-18T20:28:36.371Z,1.17
2022-09-18T20:31:05.048Z,0.93
2022-09-18T20:33:32.307Z,1.00
2022-09-18T20:36:00.262Z,0.80
2022-09-18T20:38:31.215Z,0.90
2022-09-18T20:41:03.761Z,0.80
2022-09-18T20:43:33.265Z,1.20
2022-09-18T20:46:02.461Z,1.17
2022-09-18T20:48:36.698Z,1.00
2022-09-18T20:51:09.112Z,1.02
2022-09-18T20:53:40.781Z,1.30
2022-09-18T20:56:13.135Z,1.23
2022-09-18T20:58:42.167Z,1.02
2022-09-18T21:01:15.559Z,1.40
2022-09-18T21:03:43.889Z,1.10
2022-09-18T21:06:22.480Z,1.45
2022-09-18T21:08:53.329Z,1.15
2022-09-18T21:11:27.386Z,1.20
2022-09-18T21:13:59.571Z,0.88
2022-09-18T21:16:28.017Z,0.90
2022-09-18T21:18:57.717Z,0.80
2022-09-18T21:21:25.725Z,1.00
2022-09-18T21:23:53.443Z,1.05
2022-09-18T21:26:21.106Z,1.00
2022-09-18T21:29:04.787Z,1.05
2022-09-18T21:31:36.618Z,1.40
2022-09-18T21:34:04.545Z,1.30
2022-09-18T21:36:38.425Z,1.17
2022-09-18T21:39:07.581Z,1.38
2022-09-18T21:41:38.754Z,1.00
2022-09-18T21:44:08.946Z,1.27
2022-09-18T21:46:39.432Z,1.08
2022-09-18T21:49:07.997Z,1.15
2022-09-18T21:51:36.138Z,1.23
2022-09-18T21:54:05.525Z,0.98
2022-09-18T21:56:32.873Z,1.45
2022-09-18T21:59:00.164Z,1.30
2022-09-18T22:01:31.666Z,1.40
2022-09-18T22:04:01.041Z,2.08
2022-09-18T22:06:44.281Z,1.00
2022-09-18T22:09:14.877Z,1.20
2022-09-18T22:11:43.094Z,1.20
2022-09-18T22:14:14.456Z,1.40
2022-09-18T22:16:43.116Z,1.30
2022-09-18T22:19:10.363Z,1.30
2022-09-18T22:21:40.387Z,1.35
2022-09-18T22:24:10.454Z,1.30
2022-09-18T22:26:44.117Z,1.30
2022-09-18T22:29:16.499Z,1.30
2022-09-18T22:31:46.475Z,1.23
2022-09-18T22:34:19.194Z,1.20
2022-09-18T22:36:47.172Z,1.20
2022-09-18T22:39:15.563Z,1.38
2022-09-18T22:41:42.668Z,1.10
2022-09-18T22:44:09.851Z,1.20
2022-09-18T22:46:38.546Z,0.93
2022-09-18T22:49:07.125Z,0.90
2022-09-18T22:51:33.829Z,1.02
2022-09-18T22:54:04.753Z,0.98
2022-09-18T22:56:32.119Z,1.42
2022-09-18T22:59:02.099Z,1.15
2022-09-18T23:01:39.269Z,0.80
2022-09-18T23:04:06.445Z,0.80
2022-09-18T23:06:34.398Z,0.90
2022-09-18T23:09:03.359Z,1.00
2022-09-18T23:11:31.933Z,0.80
2022-09-18T23:14:02.037Z,0.80
2022-09-18T23:16:30.564Z,0.70
2022-09-18T23:19:03.567Z,0.80
2022-09-18T23:21:32.137Z,0.80
2022-09-18T23:24:01.378Z,0.90
2022-09-18T23:26:31.025Z,1.00
2022-09-18T23:28:59.320Z,0.70
2022-09-18T23:31:35.297Z,0.90
2022-09-18T23:34:05.486Z,1.10
2022-09-18T23:36:38.267Z,0.80
2022-09-18T23:39:07.992Z,0.70
2022-09-18T23:41:34.830Z,0.80
2022-09-18T23:44:03.911Z,0.88
2022-09-18T23:46:31.267Z,0.80
2022-09-18T23:48:58.863Z,0.88
2022-09-18T23:51:28.703Z,0.95
2022-09-18T23:53:57.161Z,0.75
2022-09-18T23:56:24.370Z,0.70
2022-09-18T23:58:59.205Z,1.25
